createdAt,value
2017-10-27T00:01:36.285Z,10.83
2017-10-27T00:04:04.548Z,10.63
2017-10-27T00:06:32.047Z,10.83
2017-10-27T00:08:59.544Z,11.70
2017-10-27T00:11:27.034Z,11.57
2017-10-27T00:13:54.526Z,9.73
2017-10-27T00:16:22.024Z,11.60
2017-10-27T00:18:49.514Z,10.73
2017-10-27T00:21:17.007Z,9.97
2017-10-27T00:23:44.492Z,8.63
2017-10-27T00:26:12.000Z,11.60
2017-10-27T00:28:40.266Z,10.07
2017-10-27T00:31:07.752Z,8.70
2017-10-27T00:33:35.247Z,10.60
2017-10-27T00:36:02.745Z,9.40
2017-10-27T00:38:30.228Z,9.83
2017-10-27T00:40:58.474Z,9.67
2017-10-27T00:43:25.962Z,12.00
2017-10-27T00:45:54.219Z,11.10
2017-10-27T00:48:22.475Z,10.80
2017-10-27T00:50:49.961Z,12.37
2017-10-27T00:53:18.220Z,12.23
2017-10-27T00:55:45.707Z,13.07
2017-10-27T00:58:13.959Z,13.30
2017-10-27T01:00:41.438Z,12.30
2017-10-27T01:03:09.686Z,15.37
2017-10-27T01:05:37.175Z,11.50
2017-10-27T01:08:05.417Z,14.00
2017-10-27T01:10:32.894Z,12.73
2017-10-27T01:13:00.387Z,10.47
2017-10-27T01:15:27.869Z,14.13
2017-10-27T01:17:55.348Z,10.67
2017-10-27T01:20:22.843Z,10.57
2017-10-27T01:22:51.092Z,12.50
2017-10-27T01:25:18.579Z,10.77
2017-10-27T01:27:46.822Z,11.50
2017-10-27T01:30:14.303Z,9.97
2017-10-27T01:32:41.779Z,10.80
2017-10-27T01:35:10.035Z,9.93
2017-10-27T01:37:37.519Z,10.63
2017-10-27T01:40:05.784Z,11.30
2017-10-27T01:42:34.039Z,10.93
2017-10-27T01:45:01.520Z,11.17
2017-10-27T01:47:29.774Z,10.87
2017-10-27T01:49:57.262Z,10.73
2017-10-27T01:52:25.520Z,13.93
2017-10-27T01:54:53.011Z,11.00
2017-10-27T01:57:20.495Z,10.30
2017-10-27T01:59:47.982Z,10.67
2017-10-27T02:02:15.475Z,11.00
2017-10-27T02:04:43.726Z,10.83
2017-10-27T02:07:11.214Z,10.60
2017-10-27T02:09:39.467Z,11.17
2017-10-27T02:12:06.958Z,10.90
2017-10-27T02:14:34.438Z,11.67
2017-10-27T02:17:01.923Z,10.33
2017-10-27T02:19:29.412Z,11.37
2017-10-27T02:21:57.664Z,10.97
2017-10-27T02:24:25.159Z,11.23
2017-10-27T02:26:53.402Z,10.87
2017-10-27T02:29:20.886Z,12.30
2017-10-27T02:31:49.138Z,11.77
2017-10-27T02:34:16.633Z,11.90
2017-10-27T02:36:44.933Z,12.03
2017-10-27T02:39:12.423Z,11.03
2017-10-27T02:41:39.915Z,11.67
2017-10-27T02:44:08.166Z,10.70
2017-10-27T02:46:35.655Z,11.80
2017-10-27T02:49:03.914Z,11.70
2017-10-27T02:51:31.403Z,11.80
2017-10-27T02:53:59.670Z,11.57
2017-10-27T02:56:27.922Z,10.90
2017-10-27T02:58:55.415Z,11.43
2017-10-27T03:01:23.662Z,11.13
2017-10-27T03:03:51.150Z,12.50
2017-10-27T03:06:19.406Z,11.77
2017-10-27T03:08:46.898Z,12.80
2017-10-27T03:11:14.378Z,13.00
2017-10-27T03:13:41.858Z,14.03
2017-10-27T03:16:09.348Z,14.60
2017-10-27T03:18:37.604Z,14.20
2017-10-27T03:21:05.099Z,15.07
2017-10-27T03:23:33.340Z,13.63
2017-10-27T03:26:01.599Z,16.20
2017-10-27T03:28:29.105Z,15.37
2017-10-27T03:30:57.375Z,14.90
2017-10-27T03:33:25.623Z,15.43
2017-10-27T03:35:53.102Z,13.30
2017-10-27T03:38:20.577Z,14.43
2017-10-27T03:40:48.848Z,14.90
2017-10-27T03:43:17.100Z,14.87
2017-10-27T03:45:44.595Z,16.87
2017-10-27T03:48:12.855Z,15.00
2017-10-27T03:50:41.110Z,14.53
2017-10-27T03:53:08.594Z,13.97
2017-10-27T03:55:36.850Z,13.80
2017-10-27T03:58:04.338Z,15.00
2017-10-27T04:00:32.606Z,13.10
2017-10-27T04:03:00.868Z,12.93
2017-10-27T04:05:28.366Z,12.00
2017-10-27T04:07:55.845Z,12.40
2017-10-27T04:10:23.341Z,13.57
2017-10-27T04:12:50.822Z,12.50
2017-10-27T04:15:19.079Z,11.60
2017-10-27T04:17:46.563Z,11.70
2017-10-27T04:20:14.814Z,11.77
2017-10-27T04:22:42.294Z,11.83
2017-10-27T04:25:10.553Z,12.83
2017-10-27T04:27:38.030Z,11.90
2017-10-27T04:30:06.282Z,12.80
2017-10-27T04:32:33.766Z,13.13
2017-10-27T04:35:02.026Z,12.37
2017-10-27T04:37:29.526Z,13.27
2017-10-27T04:39:57.001Z,12.50
2017-10-27T04:42:24.470Z,13.33
2017-10-27T04:44:51.950Z,12.57
2017-10-27T04:47:19.425Z,11.73
2017-10-27T04:49:47.669Z,12.10
2017-10-27T04:52:15.152Z,11.43
2017-10-27T04:54:44.146Z,11.83
2017-10-27T04:57:11.622Z,12.70
2017-10-27T04:59:39.878Z,12.10
2017-10-27T05:02:07.372Z,15.10
2017-10-27T05:04:35.631Z,12.80
2017-10-27T05:07:03.951Z,12.70
2017-10-27T05:09:31.439Z,13.67
2017-10-27T05:11:58.919Z,12.90
2017-10-27T05:14:26.409Z,13.80
2017-10-27T05:16:59.676Z,11.70
2017-10-27T05:19:33.670Z,13.37
2017-10-27T05:22:06.930Z,13.33
2017-10-27T05:24:34.416Z,12.60
2017-10-27T05:27:01.899Z,14.10
2017-10-27T05:29:29.390Z,12.70
2017-10-27T05:31:56.869Z,10.17
2017-10-27T05:34:24.382Z,12.57
2017-10-27T05:36:52.646Z,12.13
2017-10-27T05:39:20.141Z,12.40
2017-10-27T05:41:47.636Z,11.63
2017-10-27T05:44:15.141Z,10.87
2017-10-27T05:46:43.410Z,10.73
2017-10-27T05:49:10.903Z,10.37
2017-10-27T05:51:38.403Z,10.80
2017-10-27T05:54:05.878Z,11.10
2017-10-27T05:56:33.372Z,10.23
2017-10-27T05:59:00.881Z,11.20
2017-10-27T06:01:28.383Z,11.13
2017-10-27T06:03:56.638Z,11.70
2017-10-27T06:06:24.117Z,10.90
2017-10-27T06:08:52.363Z,9.50
2017-10-27T06:11:19.849Z,10.80
2017-10-27T06:13:48.102Z,14.57
2017-10-27T06:16:15.594Z,11.00
2017-10-27T06:18:43.856Z,10.67
2017-10-27T06:21:12.110Z,11.40
2017-10-27T06:23:39.596Z,9.90
2017-10-27T06:26:07.859Z,10.50
2017-10-27T06:28:35.342Z,9.30
2017-10-27T06:31:03.599Z,12.50
2017-10-27T06:33:31.096Z,10.40
2017-10-27T06:35:58.576Z,9.50
2017-10-27T06:38:26.121Z,10.27
2017-10-27T06:40:53.607Z,11.10
2017-10-27T06:43:21.106Z,10.13
2017-10-27T06:45:49.360Z,10.40
2017-10-27T06:48:16.852Z,10.23
2017-10-27T06:50:45.103Z,10.70
2017-10-27T06:53:12.583Z,9.73
2017-10-27T06:55:40.846Z,11.33
2017-10-27T06:58:09.107Z,11.43
2017-10-27T07:00:36.605Z,10.87
2017-10-27T07:03:04.092Z,10.87
2017-10-27T07:05:31.577Z,10.60
2017-10-27T07:07:59.075Z,10.47
2017-10-27T07:10:27.321Z,10.13
2017-10-27T07:12:54.810Z,10.60
2017-10-27T07:15:23.068Z,10.93
2017-10-27T07:17:50.550Z,10.37
2017-10-27T07:20:18.793Z,11.53
2017-10-27T07:22:46.297Z,11.67
2017-10-27T07:25:13.775Z,12.63
2017-10-27T07:27:41.267Z,11.93
2017-10-27T07:30:09.516Z,11.43
2017-10-27T07:32:37.008Z,12.17
2017-10-27T07:35:04.491Z,13.37
2017-10-27T07:37:32.747Z,11.43
2017-10-27T07:40:00.237Z,10.87
2017-10-27T07:42:27.723Z,11.67
2017-10-27T07:44:55.203Z,11.57
2017-10-27T07:47:22.691Z,11.87
2017-10-27T07:49:50.950Z,11.53
2017-10-27T07:52:18.456Z,11.77
2017-10-27T07:54:45.946Z,11.80
2017-10-27T07:57:13.434Z,10.77
2017-10-27T07:59:40.921Z,13.40
2017-10-27T08:02:09.165Z,13.80
2017-10-27T08:04:36.660Z,13.97
2017-10-27T08:07:04.919Z,14.23
2017-10-27T08:09:33.170Z,13.07
2017-10-27T08:12:00.659Z,12.00
2017-10-27T08:14:28.915Z,14.03
2017-10-27T08:16:56.407Z,12.20
2017-10-27T08:19:23.900Z,15.70
2017-10-27T08:21:51.374Z,14.03
2017-10-27T08:24:18.862Z,14.97
2017-10-27T08:26:47.125Z,14.47
2017-10-27T08:29:14.617Z,16.03
2017-10-27T08:31:42.879Z,19.10
2017-10-27T08:34:11.132Z,18.77
2017-10-27T08:36:38.618Z,18.63
2017-10-27T08:39:06.883Z,19.93
2017-10-27T08:41:34.371Z,18.90
2017-10-27T08:44:01.857Z,19.90
2017-10-27T08:46:29.347Z,20.00
2017-10-27T08:48:56.825Z,20.20
2017-10-27T08:51:24.314Z,20.40
2017-10-27T08:53:51.802Z,21.90
2017-10-27T08:56:19.296Z,24.23
2017-10-27T08:58:46.800Z,16.90
2017-10-27T09:01:14.297Z,30.57
2017-10-27T09:03:41.785Z,34.50
2017-10-27T09:06:10.055Z,52.97
2017-10-27T09:08:37.534Z,42.23
2017-10-27T09:11:05.784Z,35.90
2017-10-27T09:13:33.266Z,39.13
2017-10-27T09:16:01.527Z,42.00
2017-10-27T09:18:29.781Z,40.53
2017-10-27T09:20:57.284Z,39.67
2017-10-27T09:23:25.539Z,39.97
2017-10-27T09:25:53.808Z,40.70
2017-10-27T09:28:21.294Z,37.83
2017-10-27T09:30:49.554Z,42.20
2017-10-27T09:33:17.816Z,45.77
2017-10-27T09:35:45.328Z,46.00
2017-10-27T09:38:12.831Z,185.73
2017-10-27T09:40:40.328Z,254.30
2017-10-27T09:43:08.580Z,136.90
2017-10-27T09:45:36.979Z,114.23
2017-10-27T09:48:05.246Z,58.83
2017-10-27T09:50:33.509Z,61.33
2017-10-27T09:53:00.995Z,43.57
2017-10-27T09:55:29.242Z,85.20
2017-10-27T09:57:56.736Z,85.03
2017-10-27T10:00:26.047Z,54.17
2017-10-27T10:02:53.539Z,47.97
2017-10-27T10:05:21.031Z,69.40
2017-10-27T10:07:48.514Z,73.20
2017-10-27T10:10:16.764Z,77.07
2017-10-27T10:12:44.245Z,100.63
2017-10-27T10:15:12.515Z,64.77
2017-10-27T10:17:40.781Z,71.63
2017-10-27T10:20:08.271Z,88.33
2017-10-27T10:22:35.756Z,57.60
2017-10-27T10:25:03.246Z,78.97
2017-10-27T10:27:30.742Z,50.97
2017-10-27T10:29:58.230Z,86.50
2017-10-27T10:32:25.743Z,59.07
2017-10-27T10:34:53.999Z,55.87
2017-10-27T10:37:21.489Z,57.83
2017-10-27T10:39:49.752Z,69.43
2017-10-27T10:42:18.019Z,72.47
2017-10-27T10:44:45.518Z,57.83
2017-10-27T10:47:12.998Z,69.90
2017-10-27T10:49:40.486Z,45.53
2017-10-27T10:52:07.970Z,58.67
2017-10-27T10:54:36.247Z,54.43
2017-10-27T10:57:04.517Z,57.13
2017-10-27T10:59:32.778Z,67.93
2017-10-27T11:02:00.253Z,51.97
2017-10-27T11:04:28.517Z,45.30
2017-10-27T11:06:56.032Z,64.07
2017-10-27T11:09:23.535Z,66.37
2017-10-27T11:11:51.045Z,65.77
2017-10-27T11:14:18.537Z,64.50
2017-10-27T11:16:46.027Z,55.03
2017-10-27T11:19:14.291Z,61.77
2017-10-27T11:21:41.792Z,50.07
2017-10-27T11:24:09.278Z,56.93
2017-10-27T11:26:36.780Z,56.27
2017-10-27T11:29:05.047Z,51.70
2017-10-27T11:31:32.525Z,60.97
2017-10-27T11:34:00.785Z,51.97
2017-10-27T11:36:28.270Z,53.00
2017-10-27T11:38:56.531Z,51.83
2017-10-27T11:41:24.786Z,52.37
2017-10-27T11:43:52.264Z,52.70
2017-10-27T11:46:19.745Z,45.37
2017-10-27T11:48:47.992Z,53.80
2017-10-27T11:51:15.495Z,53.00
2017-10-27T11:53:42.995Z,49.60
2017-10-27T11:56:10.495Z,49.43
2017-10-27T11:58:38.755Z,54.40
2017-10-27T12:01:07.025Z,49.53
2017-10-27T12:03:34.496Z,49.33
2017-10-27T12:06:02.741Z,49.37
2017-10-27T12:08:30.216Z,48.67
2017-10-27T12:11:03.698Z,52.77
2017-10-27T12:13:31.195Z,49.80
2017-10-27T12:15:59.451Z,48.63
2017-10-27T12:18:26.948Z,49.97
2017-10-27T12:20:54.439Z,49.30
2017-10-27T12:23:21.933Z,52.30
2017-10-27T12:25:49.426Z,54.40
2017-10-27T12:28:16.925Z,51.10
2017-10-27T12:30:44.411Z,52.07
2017-10-27T12:33:11.913Z,53.30
2017-10-27T12:35:39.419Z,52.30
2017-10-27T12:38:06.905Z,53.40
2017-10-27T12:40:35.163Z,47.53
2017-10-27T12:43:02.652Z,48.37
2017-10-27T12:45:30.907Z,51.33
2017-10-27T12:47:58.383Z,47.67
2017-10-27T12:50:26.628Z,50.17
2017-10-27T12:52:54.114Z,55.33
2017-10-27T12:55:22.368Z,49.07
2017-10-27T12:57:49.845Z,47.87
2017-10-27T13:00:19.808Z,216.20
2017-10-27T13:02:48.196Z,166.67
2017-10-27T13:05:15.692Z,126.83
2017-10-27T13:07:43.267Z,89.23
2017-10-27T13:10:12.378Z,68.00
2017-10-27T13:12:46.089Z,88.67
2017-10-27T13:15:14.379Z,96.47
2017-10-27T13:17:42.847Z,92.67
2017-10-27T13:20:10.829Z,72.13
2017-10-27T13:22:38.307Z,85.57
2017-10-27T13:25:05.950Z,68.50
2017-10-27T13:27:35.015Z,72.73
2017-10-27T13:30:03.872Z,53.70
2017-10-27T13:32:31.355Z,81.67
2017-10-27T13:34:59.622Z,464.57
2017-10-27T13:37:28.612Z,370.03
2017-10-27T13:39:56.232Z,157.10
2017-10-27T13:42:25.070Z,101.63
2017-10-27T13:44:53.135Z,76.73
2017-10-27T13:47:21.971Z,139.57
2017-10-27T13:49:50.126Z,139.63
2017-10-27T13:52:18.958Z,78.13
2017-10-27T13:54:46.683Z,117.40
2017-10-27T13:57:15.296Z,71.27
2017-10-27T13:59:43.303Z,69.43
2017-10-27T14:02:10.929Z,109.50
2017-10-27T14:04:39.104Z,103.83
2017-10-27T14:07:07.279Z,48.27
2017-10-27T14:09:34.906Z,52.63
2017-10-27T14:12:03.462Z,47.90
2017-10-27T14:14:31.743Z,62.70
2017-10-27T14:16:59.231Z,82.97
2017-10-27T14:19:27.497Z,62.83
2017-10-27T14:21:55.139Z,54.40
2017-10-27T14:24:23.699Z,94.70
2017-10-27T14:26:51.593Z,69.07
2017-10-27T14:29:19.092Z,47.20
2017-10-27T14:31:47.927Z,87.60
2017-10-27T14:34:15.771Z,86.87
2017-10-27T14:36:44.167Z,52.30
2017-10-27T14:39:12.571Z,73.43
2017-10-27T14:41:40.058Z,154.63
2017-10-27T14:44:08.827Z,413.73
2017-10-27T14:46:36.581Z,274.13
2017-10-27T14:49:04.451Z,84.53
2017-10-27T14:51:32.814Z,134.87
2017-10-27T14:54:01.037Z,152.17
2017-10-27T14:56:29.757Z,58.90
2017-10-27T14:58:58.079Z,45.73
2017-10-27T15:01:26.215Z,118.37
2017-10-27T15:03:54.105Z,84.17
2017-10-27T15:06:21.931Z,78.70
2017-10-27T15:08:50.018Z,72.87
2017-10-27T15:11:17.517Z,71.53
2017-10-27T15:13:45.003Z,65.10
2017-10-27T15:16:13.286Z,458.93
2017-10-27T15:18:41.546Z,301.00
2017-10-27T15:21:09.052Z,235.60
2017-10-27T15:23:36.529Z,74.77
2017-10-27T15:26:04.001Z,58.73
2017-10-27T15:28:31.490Z,66.03
2017-10-27T15:30:59.756Z,210.93
2017-10-27T15:33:28.014Z,144.83
2017-10-27T15:35:55.507Z,85.50
2017-10-27T15:38:23.749Z,51.67
2017-10-27T15:40:51.237Z,127.57
2017-10-27T15:43:19.486Z,121.00
2017-10-27T15:45:46.970Z,88.57
2017-10-27T15:48:15.226Z,132.00
2017-10-27T15:50:42.710Z,53.20
2017-10-27T15:53:10.974Z,79.87
2017-10-27T15:55:38.485Z,146.17
2017-10-27T15:58:05.984Z,135.77
2017-10-27T16:00:34.252Z,120.73
2017-10-27T16:03:01.764Z,107.03
2017-10-27T16:05:29.320Z,108.40
2017-10-27T16:07:56.819Z,591.40
2017-10-27T16:10:24.340Z,76.10
2017-10-27T16:12:51.835Z,408.33
2017-10-27T16:15:19.321Z,104.10
2017-10-27T16:17:46.825Z,69.43
2017-10-27T16:20:14.322Z,297.93
2017-10-27T16:22:41.809Z,104.73
2017-10-27T16:25:09.292Z,55.13
2017-10-27T16:27:36.815Z,47.70
2017-10-27T16:30:04.333Z,51.10
2017-10-27T16:32:31.874Z,42.90
2017-10-27T16:34:59.381Z,230.07
2017-10-27T16:37:26.857Z,56.77
2017-10-27T16:39:54.359Z,54.47
2017-10-27T16:42:21.865Z,70.93
2017-10-27T16:44:49.411Z,41.67
2017-10-27T16:47:16.914Z,41.30
2017-10-27T16:49:46.261Z,48.00
2017-10-27T16:52:14.017Z,47.60
2017-10-27T16:54:41.541Z,51.67
2017-10-27T16:57:09.811Z,67.43
2017-10-27T16:59:37.327Z,51.20
2017-10-27T17:02:05.051Z,48.03
2017-10-27T17:04:32.540Z,43.80
2017-10-27T17:07:00.029Z,44.00
2017-10-27T17:09:27.561Z,46.43
2017-10-27T17:11:55.038Z,46.47
2017-10-27T17:14:22.525Z,48.67
2017-10-27T17:16:50.006Z,50.17
2017-10-27T17:19:18.257Z,47.40
2017-10-27T17:21:45.736Z,49.13
2017-10-27T17:24:14.154Z,65.23
2017-10-27T17:26:41.652Z,58.63
2017-10-27T17:29:09.144Z,58.53
2017-10-27T17:31:36.668Z,82.27
2017-10-27T17:34:04.153Z,59.70
2017-10-27T17:36:32.406Z,60.70
2017-10-27T17:38:59.912Z,63.20
2017-10-27T17:41:27.419Z,60.57
2017-10-27T17:43:54.921Z,61.77
2017-10-27T17:46:22.400Z,64.20
2017-10-27T17:48:49.883Z,64.57
2017-10-27T17:51:17.377Z,63.90
2017-10-27T17:53:45.637Z,69.30
2017-10-27T17:56:13.136Z,68.30
2017-10-27T17:58:40.619Z,70.93
2017-10-27T18:01:08.100Z,76.30
2017-10-27T18:03:35.591Z,157.97
2017-10-27T18:06:03.842Z,68.50
2017-10-27T18:08:31.329Z,70.00
2017-10-27T18:10:59.583Z,71.20
2017-10-27T18:13:27.080Z,167.90
2017-10-27T18:15:55.338Z,87.80
2017-10-27T18:18:23.594Z,71.10
2017-10-27T18:20:51.115Z,75.20
2017-10-27T18:23:18.612Z,95.23
2017-10-27T18:25:46.106Z,185.73
2017-10-27T18:28:14.368Z,216.77
2017-10-27T18:30:42.636Z,112.37
2017-10-27T18:33:10.108Z,89.77
2017-10-27T18:35:38.363Z,90.07
2017-10-27T18:38:05.857Z,84.83
2017-10-27T18:40:34.108Z,89.70
2017-10-27T18:43:01.608Z,92.23
2017-10-27T18:45:29.107Z,87.97
2017-10-27T18:47:56.602Z,101.43
2017-10-27T18:50:24.851Z,90.10
2017-10-27T18:52:52.350Z,96.17
2017-10-27T18:55:20.610Z,97.23
2017-10-27T18:57:48.882Z,114.87
2017-10-27T19:00:16.374Z,99.10
2017-10-27T19:02:43.866Z,98.00
2017-10-27T19:05:11.361Z,97.53
2017-10-27T19:07:39.619Z,97.60
2017-10-27T19:10:07.118Z,163.80
2017-10-27T19:12:34.621Z,216.17
2017-10-27T19:15:02.118Z,173.37
2017-10-27T19:17:30.373Z,156.50
2017-10-27T19:19:57.866Z,155.53
2017-10-27T19:22:26.135Z,98.77
2017-10-27T19:24:54.403Z,90.80
2017-10-27T19:27:21.891Z,94.37
2017-10-27T19:29:49.394Z,120.37
2017-10-27T19:32:16.886Z,98.63
2017-10-27T19:34:45.147Z,92.40
2017-10-27T19:37:12.633Z,90.00
2017-10-27T19:39:40.940Z,96.50
2017-10-27T19:42:08.437Z,94.70
2017-10-27T19:44:35.923Z,102.40
2017-10-27T19:47:04.207Z,93.87
2017-10-27T19:49:32.459Z,94.73
2017-10-27T19:51:59.965Z,97.70
2017-10-27T19:54:27.463Z,102.53
2017-10-27T19:56:54.962Z,98.73
2017-10-27T19:59:23.223Z,103.30
2017-10-27T20:01:50.731Z,90.40
2017-10-27T20:04:18.209Z,97.33
2017-10-27T20:06:45.699Z,96.13
2017-10-27T20:09:13.198Z,101.90
2017-10-27T20:11:40.694Z,109.23
2017-10-27T20:14:08.220Z,102.70
2017-10-27T20:16:35.716Z,104.50
2017-10-27T20:19:03.219Z,98.00
2017-10-27T20:21:31.465Z,101.63
2017-10-27T20:23:59.732Z,97.80
2017-10-27T20:26:28.585Z,97.00
2017-10-27T20:28:57.623Z,99.27
2017-10-27T20:31:25.113Z,101.17
2017-10-27T20:33:53.362Z,96.17
2017-10-27T20:36:20.850Z,97.40
2017-10-27T20:38:49.110Z,96.40
2017-10-27T20:41:17.380Z,94.20
2017-10-27T20:43:45.664Z,92.60
2017-10-27T20:46:13.936Z,98.10
2017-10-27T20:48:41.427Z,91.43
2017-10-27T20:51:08.925Z,90.73
2017-10-27T20:53:36.417Z,90.80
2017-10-27T20:56:03.901Z,95.47
2017-10-27T20:58:32.240Z,89.87
2017-10-27T21:00:59.743Z,84.33
2017-10-27T21:03:27.231Z,85.30
2017-10-27T21:05:54.728Z,88.33
2017-10-27T21:08:22.214Z,78.47
2017-10-27T21:10:49.719Z,81.60
2017-10-27T21:13:17.235Z,83.20
2017-10-27T21:15:44.716Z,77.70
2017-10-27T21:18:12.215Z,81.03
2017-10-27T21:20:39.711Z,74.87
2017-10-27T21:23:07.196Z,76.93
2017-10-27T21:25:34.695Z,78.27
2017-10-27T21:28:02.183Z,80.97
2017-10-27T21:30:30.434Z,74.47
2017-10-27T21:32:57.932Z,78.37
2017-10-27T21:35:25.422Z,77.63
2017-10-27T21:37:53.054Z,78.10
2017-10-27T21:40:20.546Z,79.70
2017-10-27T21:42:48.057Z,79.03
2017-10-27T21:45:16.323Z,79.23
2017-10-27T21:47:44.591Z,79.10
2017-10-27T21:50:12.096Z,80.83
2017-10-27T21:52:39.591Z,82.20
2017-10-27T21:55:07.073Z,79.93
2017-10-27T21:57:35.336Z,81.80
2017-10-27T22:00:03.610Z,79.63
2017-10-27T22:02:31.102Z,79.67
2017-10-27T22:04:59.366Z,86.03
2017-10-27T22:07:27.622Z,84.93
2017-10-27T22:09:55.098Z,81.57
2017-10-27T22:12:23.359Z,81.87
2017-10-27T22:14:50.848Z,80.90
2017-10-27T22:17:19.103Z,81.23
2017-10-27T22:19:46.580Z,84.53
2017-10-27T22:22:14.852Z,82.47
2017-10-27T22:24:43.106Z,86.90
2017-10-27T22:27:10.596Z,82.17
2017-10-27T22:29:38.851Z,80.80
2017-10-27T22:32:06.343Z,87.70
2017-10-27T22:34:33.832Z,89.17
2017-10-27T22:37:01.323Z,90.33
2017-10-27T22:39:30.309Z,93.70
2017-10-27T22:41:57.803Z,94.10
2017-10-27T22:44:26.062Z,89.27
2017-10-27T22:46:53.555Z,97.03
2017-10-27T22:49:21.051Z,96.57
2017-10-27T22:51:48.541Z,96.60
2017-10-27T22:54:16.031Z,95.03
2017-10-27T22:56:43.513Z,98.03
2017-10-27T22:59:11.002Z,101.87
2017-10-27T23:01:38.496Z,102.93
2017-10-27T23:04:06.758Z,104.17
2017-10-27T23:06:35.018Z,105.90
2017-10-27T23:09:02.518Z,108.50
2017-10-27T23:11:30.001Z,99.77
2017-10-27T23:13:57.497Z,104.77
2017-10-27T23:16:24.981Z,108.93
2017-10-27T23:18:53.240Z,105.33
2017-10-27T23:21:20.743Z,104.37
2017-10-27T23:23:48.239Z,111.13
2017-10-27T23:26:15.754Z,112.60
2017-10-27T23:28:43.255Z,113.13
2017-10-27T23:31:10.758Z,111.00
2017-10-27T23:33:39.009Z,110.67
2017-10-27T23:36:06.502Z,119.50
2017-10-27T23:38:34.007Z,113.57
2017-10-27T23:41:01.510Z,114.87
2017-10-27T23:43:29.764Z,113.93
2017-10-27T23:45:57.266Z,113.03
2017-10-27T23:48:24.779Z,115.10
2017-10-27T23:50:52.278Z,103.90
2017-10-27T23:53:19.774Z,102.30
2017-10-27T23:55:47.259Z,103.40
2017-10-27T23:58:14.747Z,97.90
